Time;durP1;ratioP1;P1;durP2;ratioP2;P2;SDS_P1;SDS_P2;PMS_P1;PMS_P2;Temp;Humidity;BMP_temperature;BMP_pressure;BME280_temperature;BME280_humidity;BME280_pressure;Samples;Min_cycle;Max_cycle;Signal;HPM_P1;HPM_P2
2021/06/28 00:00:38;;;;;;;35.67;32.53;;;;;;;;;;2088507;28;20838;-80
2021/06/28 00:01:40;;;;;;;36.10;32.77;;;;;;;;;;2089554;28;20477;-80
2021/06/28 00:02:40;;;;;;;38.67;32.80;;;;;;;;;;2089610;28;20215;-81
2021/06/28 00:03:42;;;;;;;37.93;34.27;;;;;;;22.41;100.00;164147.97;2089735;28;20441;-81
2021/06/28 00:04:43;;;;;;;37.63;34.30;;;;;;;;;;2088589;28;20223;-81
2021/06/28 00:05:46;;;;;;;36.73;33.23;;;;;;;22.40;100.00;57707.53;2080260;28;20450;-80
2021/06/28 00:06:46;;;;;;;37.67;33.97;;;;;;;;;;2080528;28;20270;-81
2021/06/28 00:07:49;;;;;;;36.27;33.17;;;;;;;;;;2088460;28;20472;-80
2021/06/28 00:08:49;;;;;;;36.73;33.23;;;;;;;;;;2089403;28;20574;-80
2021/06/28 00:09:51;;;;;;;35.60;32.50;;;;;;;;;;2088749;28;20519;-81
2021/06/28 00:10:52;;;;;;;36.20;33.10;;;;;;;;;;2088269;28;20230;-80
2021/06/28 00:11:53;;;;;;;36.27;32.70;;;;;;;;;;2088722;28;20442;-80
2021/06/28 00:12:55;;;;;;;36.83;32.90;;;;;;;;;;2089451;28;20223;-80
2021/06/28 00:13:56;;;;;;;36.40;32.87;;;;;;;;;;2088561;28;20518;-81
2021/06/28 00:14:58;;;;;;;37.00;33.13;;;;;;;;;;2080272;28;20499;-80
2021/06/28 00:16:00;;;;;;;36.53;32.93;;;;;;;;;;2080752;28;20541;-81
2021/06/28 00:17:00;;;;;;;36.87;33.40;;;;;;;;;;2080388;28;20805;-81
2021/06/28 00:18:02;;;;;;;36.80;33.63;;;;;;;;;;2080462;28;20458;-80
2021/06/28 00:19:03;;;;;;;36.03;32.73;;;;;;;;;;2088763;28;20228;-81
2021/06/28 00:20:05;;;;;;;36.53;33.07;;;;;;;;;;2088618;28;20504;-81
2021/06/28 00:21:07;;;;;;;38.80;35.30;;;;;;;;;;2088827;28;20223;-81
2021/06/28 00:22:08;;;;;;;39.78;35.92;;;;;;;;;;2087962;28;20449;-80
2021/06/28 00:23:10;;;;;;;41.87;37.60;;;;;;;;;;2088463;28;20309;-80
2021/06/28 00:24:11;;;;;;;41.88;37.92;;;;;;;22.48;100.00;122692.81;2080253;28;20458;-79
2021/06/28 00:25:14;;;;;;;41.43;37.10;;;;;;;;;;2080559;28;20386;-79
2021/06/28 00:26:14;;;;;;;40.33;36.43;;;;;;;;;;2088580;28;20759;-80
2021/06/28 00:27:16;;;;;;;43.37;39.27;;;;;;;;;;2088547;28;20836;-80
2021/06/28 00:28:16;;;;;;;41.07;37.03;;;;;;;;;;2088434;28;20313;-80
2021/06/28 00:29:18;;;;;;;41.87;37.77;;;;;;;;;;2088580;28;20457;-80
2021/06/28 00:30:21;;;;;;;41.57;37.60;;;;;;;;;;2088424;28;20227;-79
2021/06/28 00:31:22;;;;;;;41.27;37.30;;;;;;;;;;2088034;28;20469;-78
2021/06/28 00:32:23;;;;;;;39.70;36.00;;;;;;;;;;2088671;28;20449;-79
2021/06/28 00:33:24;;;;;;;40.27;36.57;;;;;;;;;;2089211;28;20453;-79
2021/06/28 00:34:26;;;;;;;40.03;36.10;;;;;;;;;;2089355;28;20711;-79
2021/06/28 00:35:27;;;;;;;39.03;34.80;;;;;;;;;;2088414;28;23656;-79
2021/06/28 00:36:28;;;;;;;38.47;35.07;;;;;;;;;;2088483;28;20443;-79
2021/06/28 00:37:29;;;;;;;40.23;36.33;;;;;;;;;;2089175;28;20496;-79
2021/06/28 00:38:30;;;;;;;39.28;35.47;;;;;;;;;;2089173;28;20219;-79
2021/06/28 00:39:31;;;;;;;40.07;36.47;;;;;;;;;;2089367;28;20684;-79
2021/06/28 00:40:32;;;;;;;40.78;36.38;;;;;;;;;;2088272;28;20309;-79
2021/06/28 00:41:34;;;;;;;40.93;36.93;;;;;;;;;;2080181;28;20682;-80
2021/06/28 00:42:34;;;;;;;40.67;36.77;;;;;;;;;;2080394;28;20277;-80
2021/06/28 00:43:36;;;;;;;39.40;35.30;;;;;;;;;;2088208;28;20506;-79
2021/06/28 00:44:36;;;;;;;37.22;33.88;;;;;;;;;;2087933;28;20269;-78
2021/06/28 00:45:40;;;;;;;40.83;36.87;;;;;;;;;;2088572;28;20250;-80
2021/06/28 00:46:41;;;;;;;39.83;36.00;;;;;;;;;;2088385;28;20226;-80
2021/06/28 00:47:42;;;;;;;42.40;38.30;;;;;;;;;;2088531;28;20457;-80
2021/06/28 00:48:44;;;;;;;41.55;37.42;;;;;;;;;;2088395;28;20229;-80
2021/06/28 00:49:45;;;;;;;42.17;38.05;;;;;;;;;;2089032;28;20610;-80
2021/06/28 00:50:48;;;;;;;40.93;37.13;;;;;;;;;;2089534;28;20584;-80
2021/06/28 00:51:48;;;;;;;41.08;37.22;;;;;;;;;;2088936;28;20588;-79
2021/06/28 00:52:51;;;;;;;37.43;33.80;;;;;;;;;;2088599;28;20243;-80
2021/06/28 00:53:52;;;;;;;37.08;33.72;;;;;;;;;;2087865;28;20223;-79
2021/06/28 00:54:53;;;;;;;37.90;33.83;;;;;;;;;;2088292;28;20215;-79
2021/06/28 00:56:08;;;;;;;36.63;33.10;;;;;;;;;;2088451;28;20772;-79
2021/06/28 00:57:10;;;;;;;36.97;33.58;;;;;;;;;;2081240;28;20484;-79
2021/06/28 00:58:11;;;;;;;36.30;33.03;;;;;;;;;;2080254;28;20223;-80
2021/06/28 00:59:13;;;;;;;36.20;33.10;;;;;;;;;;2079956;28;20574;-80
2021/06/28 01:00:15;;;;;;;38.47;34.93;;;;;;;;;;2071925;28;20353;-80
2021/06/28 01:01:18;;;;;;;38.33;34.72;;;;;;;;;;2080365;28;20458;-79
2021/06/28 01:02:18;;;;;;;38.40;34.53;;;;;;;;;;2071865;28;20306;-80
2021/06/28 01:03:20;;;;;;;36.67;33.33;;;;;;;;;;2072064;28;20223;-80
2021/06/28 01:04:20;;;;;;;36.15;32.72;;;;;;;;;;2071569;28;20228;-80
2021/06/28 01:05:24;;;;;;;38.17;34.57;;;;;;;;;;2079993;28;20278;-80
2021/06/28 01:06:24;;;;;;;38.10;34.47;;;;;;;;;;2086867;28;20309;-79
2021/06/28 01:07:27;;;;;;;37.13;33.73;;;;;;;;;;2088954;28;20219;-80
2021/06/28 01:08:27;;;;;;;40.77;36.73;;;;;;;;;;2088174;28;20618;-80
2021/06/28 01:09:29;;;;;;;38.80;35.13;;;;;;;;;;2079729;28;20446;-80
2021/06/28 01:10:30;;;;;;;38.55;34.95;;;;;;;;;;2088300;28;20229;-80
2021/06/28 01:11:33;;;;;;;39.13;35.23;;;;;;;;;;2089025;28;20723;-80
2021/06/28 01:12:34;;;;;;;38.63;35.00;;;;;;;;;;2088108;28;20288;-80
2021/06/28 01:13:36;;;;;;;42.27;38.17;;;;;;;;;;2079723;28;20223;-80
2021/06/28 01:14:37;;;;;;;42.07;37.57;;;;;;;;;;2087632;28;20665;-79
2021/06/28 01:15:39;;;;;;;44.57;39.97;;;;;;;;;;2088281;28;20462;-79
2021/06/28 01:16:41;;;;;;;39.78;35.88;;;;;;;;;;2088252;28;20230;-80
2021/06/28 01:17:43;;;;;;;38.45;34.85;;;;;;;;;;2079678;28;20297;-80
2021/06/28 01:18:43;;;;;;;40.10;36.33;;;;;;;;;;2079752;28;20689;-80
2021/06/28 01:19:46;;;;;;;39.37;35.73;;;;;;;;;;2079727;28;20285;-80
2021/06/28 01:20:48;;;;;;;39.30;35.83;;;;;;;;;;2088251;28;20226;-80
2021/06/28 01:21:50;;;;;;;41.30;37.00;;;;;;;;;;2088185;28;20256;-79
2021/06/28 01:22:53;;;;;;;40.80;37.00;;;;;;;;;;2088334;28;20716;-80
2021/06/28 01:23:55;;;;;;;38.10;34.40;;;;;;;;;;2088443;28;20291;-80
2021/06/28 01:24:57;;;;;;;40.83;36.97;;;;;;;;;;2088752;28;20641;-80
2021/06/28 01:25:58;;;;;;;40.40;36.63;;;;;;;;;;2087937;28;20223;-80
2021/06/28 01:27:00;;;;;;;42.33;38.13;;;;;;;;;;2079639;28;20299;-80
2021/06/28 01:28:00;;;;;;;42.70;38.28;;;;;;;;;;2087742;28;20218;-80
2021/06/28 01:29:02;;;;;;;40.53;36.90;;;;;;;;;;2088600;28;20225;-80
2021/06/28 01:30:04;;;;;;;43.50;39.13;;;;;;;;;;2088260;28;20676;-80
2021/06/28 01:31:07;;;;;;;42.72;38.72;;;;;;;;;;2079987;28;20223;-80
2021/06/28 01:32:07;;;;;;;42.78;38.67;;;;;;;;;;2079555;28;20580;-79
2021/06/28 01:33:09;;;;;;;39.97;36.13;;;;;;;;;;2087879;28;20238;-80
2021/06/28 01:34:10;;;;;;;41.72;37.35;;;;;;;;;;2087894;28;20226;-80
2021/06/28 01:35:12;;;;;;;42.40;38.57;;;;;;;;;;2088262;28;20751;-79
2021/06/28 01:36:13;;;;;;;44.05;39.55;;;;;;;;;;2087705;28;20242;-79
2021/06/28 01:37:20;;;;;;;42.90;38.60;;;;;;;;;;2087891;28;20218;-79
2021/06/28 01:38:21;;;;;;;43.13;38.83;;;;;;;;;;2088832;28;20685;-80
2021/06/28 01:39:24;;;;;;;42.17;37.60;;;;;;;;;;2081377;28;20573;-78
2021/06/28 01:40:24;;;;;;;41.42;37.42;;;;;;;;;;2074109;28;20306;-80
2021/06/28 01:41:26;;;;;;;42.13;38.10;;;;;;;;;;2081283;28;20223;-79
2021/06/28 01:42:27;;;;;;;41.10;37.28;;;;;;;;;;2079720;28;20588;-79
2021/06/28 01:43:29;;;;;;;43.35;39.03;;;;;;;;;;2079997;28;20211;-79
2021/06/28 01:44:31;;;;;;;42.53;38.23;;;;;;;;;;2080448;28;20215;-79
2021/06/28 01:45:32;;;;;;;43.30;38.85;;;;;;;;;;2079932;28;20451;-79
2021/06/28 01:46:33;;;;;;;42.45;38.45;;;;;;;;;;2079605;28;20223;-79
2021/06/28 01:47:35;;;;;;;42.60;38.43;;;;;;;;;;2079631;28;20219;-80
2021/06/28 01:48:37;;;;;;;43.88;39.83;;;;;;;;;;2071673;28;20317;-79
2021/06/28 01:49:38;;;;;;;42.88;38.70;;;;;;;;;;2085484;28;20250;-79
2021/06/28 01:50:39;;;;;;;42.97;38.85;;;;;;;;;;2088069;28;20251;-79
2021/06/28 01:51:41;;;;;;;41.77;37.83;;;;;;;;;;2088073;28;20222;-79
2021/06/28 01:52:41;;;;;;;41.65;37.90;;;;;;;;;;2087995;28;23074;-80
2021/06/28 01:53:44;;;;;;;39.43;36.03;;;;;;;;;;2087942;28;20238;-79
2021/06/28 01:54:46;;;;;;;40.17;36.60;;;;;;;;;;2087898;28;20222;-79
2021/06/28 01:55:48;;;;;;;39.40;35.60;;;;;;;;;;2087773;28;20230;-79
2021/06/28 01:56:48;;;;;;;40.67;36.58;;;;;;;;;;2079549;28;20223;-79
2021/06/28 01:57:52;;;;;;;38.17;34.63;;;;;;;;;;2087953;28;20222;-79
2021/06/28 01:58:52;;;;;;;39.38;35.80;;;;;;;;;;2080999;28;20311;-79
2021/06/28 01:59:54;;;;;;;41.07;37.43;;;;;;;;;;2079722;28;20227;-79
2021/06/28 02:00:55;;;;;;;39.05;35.50;;;;;;;;;;2079538;28;20288;-80
2021/06/28 02:01:56;;;;;;;39.30;35.60;;;;;;;;;;2071289;28;20232;-79
2021/06/28 02:03:01;;;;;;;39.38;35.75;;;;;;;;;;2079609;28;20284;-80
2021/06/28 02:04:03;;;;;;;39.85;36.25;;;;;;;;;;2080262;28;20701;-79
2021/06/28 02:05:04;;;;;;;42.30;38.40;;;;;;;;;;2080351;28;20280;-80
2021/06/28 02:06:05;;;;;;;39.20;35.50;;;;;;;;;;2080018;28;20305;-80
2021/06/28 02:07:07;;;;;;;38.92;35.30;;;;;;;;;;2081767;28;20219;-79
2021/06/28 02:08:09;;;;;;;38.28;34.95;;;;;;;;;;2085561;28;20761;-79
2021/06/28 02:09:10;;;;;;;38.58;34.88;;;;;;;;;;2087780;28;20238;-79
2021/06/28 02:10:13;;;;;;;41.33;37.90;;;;;;;;;;2087777;28;20226;-80
2021/06/28 02:11:14;;;;;;;38.50;35.13;;;;;;;;;;2087762;28;20243;-80
2021/06/28 02:12:15;;;;;;;38.80;35.20;;;;;;;;;;2079458;28;20231;-79
2021/06/28 02:13:17;;;;;;;37.67;34.47;;;;;;;;;;2087814;28;20222;-80
2021/06/28 02:14:17;;;;;;;39.28;35.47;;;;;;;;;;2087871;28;20620;-79
2021/06/28 02:15:20;;;;;;;38.13;34.87;;;;;;;;;;2087815;28;20219;-80
2021/06/28 02:16:21;;;;;;;36.90;33.63;;;;;;;;;;2087599;28;20214;-79
2021/06/28 02:17:22;;;;;;;37.72;34.42;;;;;;;;;;2074953;28;20259;-78
2021/06/28 02:18:24;;;;;;;37.40;34.30;;;;;;;;;;2081553;28;20277;-79
2021/06/28 02:19:25;;;;;;;36.97;33.80;;;;;;;;;;2080361;28;20234;-79
2021/06/28 02:20:27;;;;;;;38.03;34.93;;;;;;;;;;2080231;28;20230;-79
2021/06/28 02:21:28;;;;;;;39.20;35.72;;;;;;;;;;2079354;28;20806;-79
2021/06/28 02:22:29;;;;;;;36.90;33.57;;;;;;;;;;2071473;28;20224;-80
2021/06/28 02:23:31;;;;;;;38.20;34.85;;;;;;;;;;2079569;28;20325;-80
2021/06/28 02:24:32;;;;;;;38.80;35.40;;;;;;;;;;2079496;28;20566;-79
2021/06/28 02:25:34;;;;;;;38.85;35.63;;;;;;;;;;2080426;28;20310;-80
2021/06/28 02:26:36;;;;;;;38.80;35.03;;;;;;;;;;2079460;28;20219;-80
2021/06/28 02:27:36;;;;;;;35.45;32.38;;;;;;;;;;2071422;28;20585;-80
2021/06/28 02:28:39;;;;;;;37.63;34.07;;;;;;;;;;2085432;28;20303;-79
2021/06/28 02:29:40;;;;;;;35.88;32.83;;;;;;;;;;2087603;28;20221;-80
2021/06/28 02:30:41;;;;;;;38.63;35.07;;;;;;;;;;2087705;28;20222;-80
2021/06/28 02:31:42;;;;;;;38.63;35.08;;;;;;;;;;2079418;28;20300;-80
2021/06/28 02:32:44;;;;;;;36.93;33.63;;;;;;;;;;2087785;28;20296;-80
2021/06/28 02:33:45;;;;;;;36.80;33.60;;;;;;;;;;2087731;28;20641;-80
2021/06/28 02:34:46;;;;;;;39.23;35.70;;;;;;;;;;2087712;28;20230;-80
2021/06/28 02:35:47;;;;;;;38.70;34.78;;;;;;;;;;2087846;28;20230;-80
2021/06/28 02:36:49;;;;;;;36.03;33.03;;;;;;;;;;2087738;28;20673;-80
2021/06/28 02:37:49;;;;;;;35.03;32.03;;;;;;;;;;2087926;28;20654;-80
2021/06/28 02:38:52;;;;;;;36.50;33.27;;;;;;;;;;2087900;28;20226;-80
2021/06/28 02:39:52;;;;;;;36.70;33.42;;;;;;;;;;2087288;28;20226;-79
2021/06/28 02:40:55;;;;;;;36.60;33.27;;;;;;;;;;2087922;28;20685;-80
2021/06/28 02:41:56;;;;;;;38.10;34.80;;;;;;;;;;2087685;28;20230;-80
2021/06/28 02:42:57;;;;;;;38.67;34.87;;;;;;;;;;2087854;28;20254;-80
2021/06/28 02:43:58;;;;;;;36.75;33.42;;;;;;;;;;2079788;28;20285;-80
2021/06/28 02:44:59;;;;;;;38.20;34.83;;;;;;;;;;2079352;28;20219;-80
2021/06/28 02:46:00;;;;;;;39.83;36.03;;;;;;;;;;2087908;28;20293;-80
2021/06/28 02:47:01;;;;;;;36.27;33.13;;;;;;;;;;2087674;28;20227;-80
2021/06/28 02:48:02;;;;;;;35.80;32.60;;;;;;;;;;2087705;28;20215;-80
2021/06/28 02:49:04;;;;;;;35.67;32.30;;;;;;;;;;2089198;28;20234;-80
2021/06/28 02:50:06;;;;;;;37.42;32.85;;;;;;;;;;2081174;28;20222;-80
2021/06/28 02:51:08;;;;;;;38.15;34.47;;;;;;;;;;2089233;28;20306;-80
2021/06/28 02:52:09;;;;;;;35.83;32.55;;;;;;;;;;2089758;28;20306;-80
2021/06/28 02:53:10;;;;;;;35.03;31.93;;;;;;;;;;2089822;28;20234;-80
2021/06/28 02:54:11;;;;;;;34.40;31.20;;;;;;;;;;2090169;28;20226;-80
2021/06/28 02:55:13;;;;;;;35.17;32.00;;;;;;;;;;2089251;28;20230;-80
2021/06/28 02:56:16;;;;;;;35.75;32.50;;;;;;;;;;2081488;28;20224;-80
2021/06/28 02:57:17;;;;;;;37.40;33.78;;;;;;;;;;2081220;28;21201;-80
2021/06/28 02:58:19;;;;;;;36.70;33.40;;;;;;;;;;2089393;28;20696;-80
2021/06/28 02:59:21;;;;;;;36.28;32.92;;;;;;;;;;2090025;28;20766;-80
2021/06/28 03:00:21;;;;;;;37.05;33.65;;;;;;;;;;2081159;28;20228;-79
2021/06/28 03:01:24;;;;;;;36.93;33.53;;;;;;;;;;2089053;28;20226;-80
2021/06/28 03:02:24;;;;;;;36.10;32.80;;;;;;;;;;2089873;28;20620;-79
2021/06/28 03:03:26;;;;;;;36.33;33.03;;;;;;;;;;2089329;28;20227;-80
2021/06/28 03:04:26;;;;;;;36.20;33.05;;;;;;;;;;2089420;28;20339;-80
2021/06/28 03:05:28;;;;;;;35.07;31.87;;;;;;;;;;2089858;28;20219;-79
2021/06/28 03:06:28;;;;;;;34.85;31.77;;;;;;;;;;2089739;28;20223;-79
2021/06/28 03:07:30;;;;;;;35.00;31.70;;;;;;;;;;2090596;28;20226;-80
2021/06/28 03:08:30;;;;;;;33.60;30.70;;;;;;;;;;2089105;28;20223;-80
2021/06/28 03:09:32;;;;;;;34.63;31.53;;;;;;;;;;2089224;28;20499;-80
2021/06/28 03:10:33;;;;;;;35.25;31.67;;;;;;;;;;2089218;28;20712;-80
2021/06/28 03:11:36;;;;;;;36.20;32.93;;;;;;;;;;2089175;28;20643;-80
2021/06/28 03:12:36;;;;;;;36.33;33.20;;;;;;;;;;2089469;28;20283;-80
2021/06/28 03:13:38;;;;;;;36.43;33.17;;;;;;;;;;2088930;28;20281;-80
2021/06/28 03:14:39;;;;;;;36.50;33.00;;;;;;;;;;2089216;28;20222;-80
2021/06/28 03:15:40;;;;;;;36.07;32.97;;;;;;;;;;2089056;28;20361;-80
2021/06/28 03:16:42;;;;;;;36.75;33.40;;;;;;;22.40;100.00;124656.63;2088709;28;20233;-80
2021/06/28 03:17:43;;;;;;;36.40;33.13;;;;;;;;;;2089155;28;20223;-80
2021/06/28 03:18:45;;;;;;;36.93;33.87;;;;;;;;;;2089072;28;20214;-80
2021/06/28 03:19:45;;;;;;;38.93;35.20;;;;;;;;;;2088765;28;20318;-80
2021/06/28 03:20:47;;;;;;;38.30;34.93;;;;;;;;;;2089130;28;20437;-79
2021/06/28 03:21:47;;;;;;;37.23;34.13;;;;;;;;;;2089057;28;20222;-79
2021/06/28 03:22:49;;;;;;;37.17;33.67;;;;;;;;;;2090057;28;20454;-80
2021/06/28 03:23:50;;;;;;;36.58;33.17;;;;;;;;;;2088960;28;20215;-80
2021/06/28 03:24:51;;;;;;;36.73;33.37;;;;;;;;;;2089072;28;20231;-81
2021/06/28 03:25:52;;;;;;;36.10;32.90;;;;;;;;;;2089800;28;20489;-79
2021/06/28 03:26:54;;;;;;;37.00;33.43;;;;;;;;;;2088443;28;20269;-80
2021/06/28 03:27:55;;;;;;;37.70;34.15;;;;;;;;;;2089120;28;20846;-80
2021/06/28 03:28:56;;;;;;;36.03;33.03;;;;;;;;;;2089720;28;20238;-81
2021/06/28 03:29:58;;;;;;;37.40;33.90;;;;;;;;;;2088971;28;20484;-80
2021/06/28 03:30:58;;;;;;;36.83;33.63;;;;;;;;;;2088851;28;20219;-80
2021/06/28 03:32:00;;;;;;;36.10;32.87;;;;;;;;;;2089085;28;20221;-80
2021/06/28 03:33:00;;;;;;;38.30;34.60;;;;;;;;;;2089139;28;20591;-80
2021/06/28 03:34:02;;;;;;;38.27;34.87;;;;;;;;;;2089025;28;20253;-80
2021/06/28 03:35:03;;;;;;;41.90;37.97;;;;;;;;;;2088774;28;20218;-80
2021/06/28 03:36:05;;;;;;;40.93;36.90;;;;;;;;;;2080492;28;20457;-80
2021/06/28 03:37:07;;;;;;;41.25;37.33;;;;;;;;;;2080793;28;20227;-80
2021/06/28 03:38:07;;;;;;;39.88;36.17;;;;;;;;;;2088580;28;20238;-80
2021/06/28 03:39:09;;;;;;;43.60;39.17;;;;;;;;;;2089978;28;20246;-79
2021/06/28 03:40:10;;;;;;;43.22;39.00;;;;;;;;;;2089639;28;20279;-79
2021/06/28 03:41:12;;;;;;;43.70;39.30;;;;;;;;;;2088790;28;20238;-79
2021/06/28 03:42:14;;;;;;;43.20;38.90;;;;;;;;;;2080929;28;20277;-79
2021/06/28 03:43:15;;;;;;;44.87;40.47;;;;;;;;;;2080522;28;20223;-79
2021/06/28 03:44:16;;;;;;;50.42;45.10;;;;;;;;;;2080707;28;20961;-80
2021/06/28 03:45:18;;;;;;;48.43;43.23;;;;;;;;;;2080657;28;20628;-79
2021/06/28 03:46:18;;;;;;;50.03;43.53;;;;;;;;;;2089209;28;20229;-79
2021/06/28 03:47:20;;;;;;;48.13;42.93;;;;;;;;;;2088993;28;20222;-79
2021/06/28 03:48:21;;;;;;;46.33;41.55;;;;;;;;;;2088752;28;20218;-79
2021/06/28 03:49:22;;;;;;;51.77;45.30;;;;;;;;;;2074577;28;20298;-79
2021/06/28 03:50:23;;;;;;;50.85;45.33;;;;;;;;;;2082151;28;20251;-78
2021/06/28 03:51:24;;;;;;;51.90;46.27;;;;;;;;;;2080602;28;20224;-78
2021/06/28 03:52:25;;;;;;;51.65;45.55;;;;;;;;;;2080497;28;20219;-79
2021/06/28 03:53:26;;;;;;;54.93;44.80;;;;;;;;;;2080534;28;20243;-79
2021/06/28 03:54:27;;;;;;;51.00;45.53;;;;;;;;;;2080808;28;20247;-79
2021/06/28 03:55:28;;;;;;;51.60;46.20;;;;;;;;;;2080537;28;20246;-79
2021/06/28 03:56:29;;;;;;;51.92;44.42;;;;;;;;;;2080427;28;20260;-79
2021/06/28 03:57:32;;;;;;;48.23;42.33;;;;;;;;;;2080670;28;20270;-79
2021/06/28 03:58:33;;;;;;;46.97;41.92;;;;;;;;;;2080496;28;20223;-79
2021/06/28 03:59:34;;;;;;;50.47;42.73;;;;;;;;;;2080345;28;20219;-79
2021/06/28 04:00:36;;;;;;;48.03;42.90;;;;;;;;;;2081424;28;20224;-79
2021/06/28 04:01:36;;;;;;;47.40;42.65;;;;;;;;;;2082909;28;20296;-79
2021/06/28 04:02:40;;;;;;;47.43;42.33;;;;;;;;;;2081271;28;20293;-79
2021/06/28 04:03:41;;;;;;;48.88;43.65;;;;;;;;;;2080241;28;20652;-79
2021/06/28 04:04:47;;;;;;;47.13;42.33;;;;;;;;;;2079143;28;20227;-79
2021/06/28 04:05:48;;;;;;;45.80;41.28;;;;;;;;;;2080223;28;20239;-79
2021/06/28 04:06:50;;;;;;;48.20;41.93;;;;;;;;;;2082734;28;20224;-79
2021/06/28 04:07:50;;;;;;;46.75;41.92;;;;;;;;;;2081520;28;20231;-79
2021/06/28 04:08:52;;;;;;;50.70;42.07;;;;;;;;;;2080411;28;20231;-79
2021/06/28 04:09:52;;;;;;;47.53;42.05;;;;;;;;;;2082506;28;20232;-79
2021/06/28 04:10:54;;;;;;;45.43;40.87;;;;;;;;;;2080219;28;20227;-79
2021/06/28 04:11:55;;;;;;;45.88;41.13;;;;;;;;;;2080490;28;20273;-79
2021/06/28 04:12:58;;;;;;;46.30;41.13;;;;;;;;;;2081513;28;20232;-79
2021/06/28 04:13:59;;;;;;;46.42;41.75;;;;;;;;;;2080271;28;20618;-79
2021/06/28 04:15:00;;;;;;;46.00;41.40;;;;;;;;;;2072540;28;20224;-80
2021/06/28 04:16:01;;;;;;;45.20;40.70;;;;;;;;;;2080415;28;20515;-79
2021/06/28 04:17:03;;;;;;;44.17;39.83;;;;;;;;;;2072267;28;20311;-79
2021/06/28 04:18:04;;;;;;;43.57;39.43;;;;;;;;;;2080742;28;20286;-79
2021/06/28 04:19:05;;;;;;;43.97;39.37;;;;;;;;;;2081133;28;20450;-79
2021/06/28 04:20:07;;;;;;;44.15;39.47;;;;;;;;;;2080423;28;20363;-79
2021/06/28 04:21:08;;;;;;;43.40;39.40;;;;;;;;;;2086752;28;20787;-78
2021/06/28 04:22:09;;;;;;;43.17;38.80;;;;;;;;;;2089289;28;20727;-78
2021/06/28 04:23:11;;;;;;;43.10;38.73;;;;;;;;;;2089069;28;20822;-78
2021/06/28 04:24:11;;;;;;;42.35;38.45;;;;;;;;;;2080166;28;20585;-79
2021/06/28 04:25:14;;;;;;;42.07;38.00;;;;;;;;;;2088878;28;20226;-79
2021/06/28 04:26:15;;;;;;;42.83;38.70;;;;;;;;;;2080698;28;20313;-79
2021/06/28 04:27:16;;;;;;;41.87;37.83;;;;;;;;;;2080307;28;20446;-79
2021/06/28 04:28:19;;;;;;;40.87;37.07;;;;;;;;;;2080709;28;20219;-79
2021/06/28 04:29:20;;;;;;;40.73;36.90;;;;;;;;;;2080495;28;20454;-79
2021/06/28 04:30:22;;;;;;;41.97;38.00;;;;;;;;;;2080297;28;20458;-79
2021/06/28 04:31:23;;;;;;;40.47;36.70;;;;;;;;;;2088254;28;20222;-79
2021/06/28 04:32:24;;;;;;;40.80;36.60;;;;;;;;;;2088702;28;20450;-79
2021/06/28 04:33:25;;;;;;;42.70;38.33;;;;;;;;;;2080123;28;20273;-80
2021/06/28 04:34:27;;;;;;;42.93;37.70;;;;;;;22.40;100.00;124593.75;2080057;28;20964;-79
2021/06/28 04:35:27;;;;;;;42.67;38.47;;;;;;;;;;2088384;28;20351;-79
2021/06/28 04:36:29;;;;;;;43.23;38.67;;;;;;;;;;2080396;28;20438;-79
2021/06/28 04:37:29;;;;;;;41.10;37.27;;;;;;;;;;2088639;28;20223;-79
2021/06/28 04:38:31;;;;;;;40.60;36.87;;;;;;;;;;2088487;28;20450;-79
2021/06/28 04:39:31;;;;;;;41.17;36.97;;;;;;;;;;2080544;28;20231;-79
2021/06/28 04:40:33;;;;;;;39.63;35.87;;;;;;;;;;2079749;28;20450;-79
2021/06/28 04:41:34;;;;;;;39.87;36.17;;;;;;;;;;2080459;28;20238;-80
2021/06/28 04:42:35;;;;;;;40.17;36.63;;;;;;;;;;2088339;28;20458;-79
2021/06/28 04:43:37;;;;;;;39.73;35.93;;;;;;;;;;2088561;28;20231;-79
2021/06/28 04:44:38;;;;;;;40.33;36.30;;;;;;;;;;2088848;28;20457;-79
2021/06/28 04:45:39;;;;;;;39.90;36.30;;;;;;;;;;2087996;28;20472;-79
2021/06/28 04:46:40;;;;;;;40.73;36.77;;;;;;;;;;2088546;28;20473;-79
2021/06/28 04:47:41;;;;;;;41.60;37.27;;;;;;;;;;2088337;28;20227;-79
2021/06/28 04:48:42;;;;;;;40.80;36.97;;;;;;;;;;2088442;28;20572;-79
2021/06/28 04:49:43;;;;;;;41.73;37.57;;;;;;;;;;2089237;28;20591;-79
2021/06/28 04:50:44;;;;;;;41.70;37.63;;;;;;;;;;2089260;28;20536;-79
2021/06/28 04:51:45;;;;;;;42.60;38.60;;;;;;;;;;2088100;28;20262;-79
2021/06/28 04:52:46;;;;;;;42.03;38.27;;;;;;;;;;2088258;28;20454;-79
2021/06/28 04:53:47;;;;;;;41.73;37.67;;;;;;;;;;2089153;28;20238;-79
2021/06/28 04:54:48;;;;;;;42.30;38.30;;;;;;;;;;2088446;28;20462;-79
2021/06/28 04:55:49;;;;;;;40.73;36.80;;;;;;;;;;2088274;28;20235;-79
2021/06/28 04:56:50;;;;;;;40.83;37.00;;;;;;;;;;2089000;28;20453;-79
2021/06/28 04:57:52;;;;;;;39.90;36.27;;;;;;;;;;2089251;28;20284;-79
2021/06/28 04:58:54;;;;;;;39.60;36.00;;;;;;;;;;2081583;28;20462;-79
2021/06/28 04:59:55;;;;;;;39.57;35.60;;;;;;;;;;2080218;28;20566;-79
2021/06/28 05:00:57;;;;;;;40.20;36.13;;;;;;;;;;2079900;28;20467;-79
2021/06/28 05:01:57;;;;;;;39.73;35.20;;;;;;;;;;2071563;28;20227;-78
2021/06/28 05:02:59;;;;;;;39.67;36.00;;;;;;;;;;2080330;28;20520;-79
2021/06/28 05:03:59;;;;;;;40.23;36.40;;;;;;;;;;2071853;28;20654;-79
2021/06/28 05:05:01;;;;;;;40.17;36.40;;;;;;;;;;2080123;28;20560;-79
2021/06/28 05:06:01;;;;;;;40.07;36.57;;;;;;;;;;2079886;28;20723;-79
2021/06/28 05:07:03;;;;;;;40.40;36.53;;;;;;;;;;2079995;28;20894;-78
2021/06/28 05:08:05;;;;;;;39.50;35.77;;;;;;;;;;2080203;28;20242;-79
2021/06/28 05:09:06;;;;;;;40.50;36.67;;;;;;;;;;2085937;28;20457;-79
2021/06/28 05:10:08;;;;;;;40.50;36.43;;;;;;;;;;2088186;28;20461;-79
2021/06/28 05:11:08;;;;;;;39.57;35.77;;;;;;;;;;2078889;28;20266;-78
2021/06/28 05:12:11;;;;;;;38.90;35.10;;;;;;;;;;2081719;28;20505;-79
2021/06/28 05:13:12;;;;;;;39.87;36.27;;;;;;;;;;2080671;28;27367;-78
2021/06/28 05:14:14;;;;;;;39.20;35.47;;;;;;;;;;2080531;28;20443;-79
2021/06/28 05:15:16;;;;;;;39.97;36.07;;;;;;;;;;2079847;28;21001;-79
2021/06/28 05:16:16;;;;;;;39.27;35.37;;;;;;;;;;2079984;28;20548;-79
2021/06/28 05:17:18;;;;;;;38.97;35.23;;;;;;;;;;2080105;28;20438;-79
2021/06/28 05:18:19;;;;;;;38.67;34.83;;;;;;;;;;2080311;28;20257;-79
2021/06/28 05:19:20;;;;;;;38.27;34.57;;;;;;;;;;2075536;28;20558;-79
2021/06/28 05:20:22;;;;;;;38.23;34.53;;;;;;;;;;2079829;28;20231;-80
2021/06/28 05:21:22;;;;;;;38.00;34.10;;;;;;;;;;2086179;28;20461;-79
2021/06/28 05:22:24;;;;;;;37.67;34.13;;;;;;;;;;2088095;28;21033;-79
2021/06/28 05:23:24;;;;;;;37.60;33.97;;;;;;;;;;2088320;28;20223;-79
2021/06/28 05:24:26;;;;;;;36.80;33.47;;;;;;;;;;2087948;28;20449;-80
2021/06/28 05:25:26;;;;;;;38.23;34.63;;;;;;;;;;2088037;28;20237;-79
2021/06/28 05:26:28;;;;;;;37.80;34.23;;;;;;;;;;2088400;28;20479;-79
2021/06/28 05:27:28;;;;;;;38.40;34.43;;;;;;;;;;2088800;28;20227;-79
2021/06/28 05:28:30;;;;;;;36.57;33.27;;;;;;;;;;2088857;28;20529;-79
2021/06/28 05:29:32;;;;;;;37.97;34.47;;;;;;;;;;2088341;28;20222;-79
2021/06/28 05:30:33;;;;;;;36.73;33.13;;;;;;;;;;2087870;28;20461;-80
2021/06/28 05:31:34;;;;;;;37.57;33.57;;;;;;;;;;2088205;28;21074;-79
2021/06/28 05:32:36;;;;;;;36.70;33.23;;;;;;;;;;2088056;28;20835;-80
2021/06/28 05:33:36;;;;;;;38.03;34.27;;;;;;;;;;2088358;28;20230;-78
2021/06/28 05:34:38;;;;;;;37.13;33.63;;;;;;;;;;2088272;28;20499;-78
2021/06/28 05:35:38;;;;;;;36.40;33.10;;;;;;;;;;2079923;28;20238;-79
2021/06/28 05:36:40;;;;;;;35.67;32.33;;;;;;;;;;2088417;28;20495;-80
2021/06/28 05:37:40;;;;;;;36.93;33.53;;;;;;;;;;2088729;28;20226;-79
2021/06/28 05:38:42;;;;;;;36.17;32.77;;;;;;;;;;2088015;28;20453;-80
2021/06/28 05:39:42;;;;;;;36.50;33.20;;;;;;;;;;2080255;28;20231;-80
2021/06/28 05:40:44;;;;;;;35.67;32.10;;;;;;;;;;2079761;28;20447;-79
2021/06/28 05:41:44;;;;;;;35.80;32.57;;;;;;;;;;2088313;28;20234;-79
2021/06/28 05:42:47;;;;;;;34.93;31.83;;;;;;;;;;2088846;28;20928;-80
2021/06/28 05:43:47;;;;;;;35.20;31.77;;;;;;;;;;2087854;28;20300;-79
2021/06/28 05:44:50;;;;;;;34.90;31.90;;;;;;;;;;2080291;28;20482;-79
2021/06/28 05:45:51;;;;;;;33.20;30.30;;;;;;;;;;2087933;28;20218;-79
2021/06/28 05:46:52;;;;;;;33.33;30.40;;;;;;;;;;2079776;28;20545;-79
2021/06/28 05:47:53;;;;;;;34.23;31.33;;;;;;;;;;2081609;28;20314;-79
2021/06/28 05:48:54;;;;;;;34.33;31.03;;;;;;;;;;2079635;28;20509;-79
2021/06/28 05:49:55;;;;;;;34.33;31.13;;;;;;;;;;2072418;28;20239;-80
2021/06/28 05:50:56;;;;;;;34.33;30.80;;;;;;;;;;2079457;28;21063;-79
2021/06/28 05:51:58;;;;;;;33.63;30.67;;;;;;;;;;2079677;28;20259;-79
2021/06/28 05:53:02;;;;;;;35.03;31.80;;;;;;;;;;2080632;28;20929;-80
2021/06/28 05:54:02;;;;;;;34.33;31.13;;;;;;;;;;2079694;28;20454;-80
2021/06/28 05:55:05;;;;;;;34.20;31.00;;;;;;;;;;2079718;28;20446;-80
2021/06/28 05:56:07;;;;;;;33.30;30.40;;;;;;;;;;2079780;28;20700;-79